sensor_id;sensor_type;location;lat;lon;timestamp;P1;durP1;ratioP1;P2;durP2;ratioP2
9801;SDS011;4940;50.900;4.672;2023-08-30T00:01:13;44.40;;;41.10;;
9801;SDS011;4940;50.900;4.672;2023-08-30T00:03:40;52.47;;;48.75;;
9801;SDS011;4940;50.900;4.672;2023-08-30T00:06:08;50.75;;;46.70;;
9801;SDS011;4940;50.900;4.672;2023-08-30T00:08:35;43.65;;;40.15;;
9801;SDS011;4940;50.900;4.672;2023-08-30T00:11:04;44.20;;;40.80;;
9801;SDS011;4940;50.900;4.672;2023-08-30T00:13:31;48.13;;;44.33;;
9801;SDS011;4940;50.900;4.672;2023-08-30T00:15:59;45.92;;;42.22;;
9801;SDS011;4940;50.900;4.672;2023-08-30T00:18:28;49.33;;;45.53;;
9801;SDS011;4940;50.900;4.672;2023-08-30T00:20:55;46.28;;;42.78;;
9801;SDS011;4940;50.900;4.672;2023-08-30T00:23:23;49.80;;;46.00;;
9801;SDS011;4940;50.900;4.672;2023-08-30T00:25:50;46.60;;;42.90;;
9801;SDS011;4940;50.900;4.672;2023-08-30T00:28:19;50.67;;;46.83;;
9801;SDS011;4940;50.900;4.672;2023-08-30T00:30:47;46.50;;;42.90;;
9801;SDS011;4940;50.900;4.672;2023-08-30T00:33:20;49.38;;;45.67;;
9801;SDS011;4940;50.900;4.672;2023-08-30T00:35:54;50.38;;;46.53;;
9801;SDS011;4940;50.900;4.672;2023-08-30T00:38:22;48.00;;;44.50;;
9801;SDS011;4940;50.900;4.672;2023-08-30T00:40:49;55.40;;;51.50;;
9801;SDS011;4940;50.900;4.672;2023-08-30T00:43:17;50.60;;;46.83;;
9801;SDS011;4940;50.900;4.672;2023-08-30T00:45:46;51.60;;;47.80;;
9801;SDS011;4940;50.900;4.672;2023-08-30T00:48:14;49.08;;;45.05;;
9801;SDS011;4940;50.900;4.672;2023-08-30T00:50:44;48.00;;;44.30;;
9801;SDS011;4940;50.900;4.672;2023-08-30T00:53:11;50.28;;;46.13;;
9801;SDS011;4940;50.900;4.672;2023-08-30T00:55:39;54.08;;;50.17;;
9801;SDS011;4940;50.900;4.672;2023-08-30T00:58:09;53.72;;;49.72;;
9801;SDS011;4940;50.900;4.672;2023-08-30T01:00:37;48.00;;;44.42;;
9801;SDS011;4940;50.900;4.672;2023-08-30T01:03:06;51.85;;;48.08;;
9801;SDS011;4940;50.900;4.672;2023-08-30T01:05:34;60.65;;;56.53;;
9801;SDS011;4940;50.900;4.672;2023-08-30T01:08:01;48.40;;;44.70;;
9801;SDS011;4940;50.900;4.672;2023-08-30T01:10:31;49.40;;;45.72;;
9801;SDS011;4940;50.900;4.672;2023-08-30T01:13:19;55.03;;;51.05;;
9801;SDS011;4940;50.900;4.672;2023-08-30T01:15:47;49.38;;;45.60;;
9801;SDS011;4940;50.900;4.672;2023-08-30T01:18:17;52.38;;;48.47;;
9801;SDS011;4940;50.900;4.672;2023-08-30T01:20:46;57.05;;;53.03;;
9801;SDS011;4940;50.900;4.672;2023-08-30T01:23:17;54.17;;;50.35;;
9801;SDS011;4940;50.900;4.672;2023-08-30T01:25:53;51.42;;;47.33;;
9801;SDS011;4940;50.900;4.672;2023-08-30T01:28:30;50.58;;;46.83;;
9801;SDS011;4940;50.900;4.672;2023-08-30T01:30:59;54.88;;;51.00;;
9801;SDS011;4940;50.900;4.672;2023-08-30T01:33:27;49.17;;;45.63;;
9801;SDS011;4940;50.900;4.672;2023-08-30T01:35:56;53.65;;;49.35;;
9801;SDS011;4940;50.900;4.672;2023-08-30T01:38:25;49.55;;;45.90;;
9801;SDS011;4940;50.900;4.672;2023-08-30T01:40:54;53.28;;;49.28;;
9801;SDS011;4940;50.900;4.672;2023-08-30T01:43:23;48.80;;;45.00;;
9801;SDS011;4940;50.900;4.672;2023-08-30T01:45:55;46.50;;;43.00;;
9801;SDS011;4940;50.900;4.672;2023-08-30T01:48:23;53.53;;;49.63;;
9801;SDS011;4940;50.900;4.672;2023-08-30T01:50:52;50.65;;;46.55;;
9801;SDS011;4940;50.900;4.672;2023-08-30T01:53:24;50.92;;;46.95;;
9801;SDS011;4940;50.900;4.672;2023-08-30T01:55:52;48.35;;;44.70;;
9801;SDS011;4940;50.900;4.672;2023-08-30T01:58:19;52.00;;;48.05;;
9801;SDS011;4940;50.900;4.672;2023-08-30T02:00:47;48.97;;;45.38;;
9801;SDS011;4940;50.900;4.672;2023-08-30T02:03:16;50.78;;;47.08;;
9801;SDS011;4940;50.900;4.672;2023-08-30T02:05:51;47.85;;;43.92;;
9801;SDS011;4940;50.900;4.672;2023-08-30T02:08:25;52.17;;;47.42;;
9801;SDS011;4940;50.900;4.672;2023-08-30T02:10:56;54.47;;;50.58;;
9801;SDS011;4940;50.900;4.672;2023-08-30T02:13:29;47.70;;;44.28;;
9801;SDS011;4940;50.900;4.672;2023-08-30T02:15:58;55.08;;;50.88;;
9801;SDS011;4940;50.900;4.672;2023-08-30T02:18:29;57.67;;;53.30;;
9801;SDS011;4940;50.900;4.672;2023-08-30T02:20:56;49.42;;;45.72;;
9801;SDS011;4940;50.900;4.672;2023-08-30T02:23:24;51.67;;;47.67;;
9801;SDS011;4940;50.900;4.672;2023-08-30T02:25:53;55.53;;;51.33;;
9801;SDS011;4940;50.900;4.672;2023-08-30T02:28:21;53.63;;;49.70;;
9801;SDS011;4940;50.900;4.672;2023-08-30T02:30:49;47.70;;;43.80;;
9801;SDS011;4940;50.900;4.672;2023-08-30T02:33:19;51.65;;;47.58;;
9801;SDS011;4940;50.900;4.672;2023-08-30T02:35:47;51.55;;;47.75;;
9801;SDS011;4940;50.900;4.672;2023-08-30T02:38:15;56.13;;;52.22;;
9801;SDS011;4940;50.900;4.672;2023-08-30T02:40:42;56.58;;;52.53;;
9801;SDS011;4940;50.900;4.672;2023-08-30T02:43:10;46.28;;;42.60;;
9801;SDS011;4940;50.900;4.672;2023-08-30T02:45:37;52.38;;;48.17;;
9801;SDS011;4940;50.900;4.672;2023-08-30T02:48:05;53.75;;;49.75;;
9801;SDS011;4940;50.900;4.672;2023-08-30T02:50:32;53.58;;;49.50;;
9801;SDS011;4940;50.900;4.672;2023-08-30T02:53:01;56.53;;;52.55;;
9801;SDS011;4940;50.900;4.672;2023-08-30T02:55:29;48.72;;;44.92;;
9801;SDS011;4940;50.900;4.672;2023-08-30T02:57:57;53.75;;;49.42;;
9801;SDS011;4940;50.900;4.672;2023-08-30T03:00:24;42.45;;;39.22;;
9801;SDS011;4940;50.900;4.672;2023-08-30T03:02:52;45.70;;;42.00;;
9801;SDS011;4940;50.900;4.672;2023-08-30T03:05:19;48.50;;;44.88;;
9801;SDS011;4940;50.900;4.672;2023-08-30T03:07:47;50.55;;;46.30;;
9801;SDS011;4940;50.900;4.672;2023-08-30T03:10:15;50.72;;;46.90;;
9801;SDS011;4940;50.900;4.672;2023-08-30T03:12:43;47.03;;;43.08;;
9801;SDS011;4940;50.900;4.672;2023-08-30T03:15:10;50.75;;;46.85;;
9801;SDS011;4940;50.900;4.672;2023-08-30T03:17:38;45.92;;;42.33;;
9801;SDS011;4940;50.900;4.672;2023-08-30T03:20:06;49.28;;;45.38;;
9801;SDS011;4940;50.900;4.672;2023-08-30T03:22:34;44.55;;;41.03;;
9801;SDS011;4940;50.900;4.672;2023-08-30T03:25:01;46.72;;;42.97;;
9801;SDS011;4940;50.900;4.672;2023-08-30T03:27:30;47.85;;;44.15;;
9801;SDS011;4940;50.900;4.672;2023-08-30T03:29:59;46.58;;;42.97;;
9801;SDS011;4940;50.900;4.672;2023-08-30T03:32:26;44.35;;;40.75;;
9801;SDS011;4940;50.900;4.672;2023-08-30T03:34:53;45.10;;;41.10;;
9801;SDS011;4940;50.900;4.672;2023-08-30T03:37:21;44.97;;;41.38;;
9801;SDS011;4940;50.900;4.672;2023-08-30T03:39:48;44.50;;;40.97;;
9801;SDS011;4940;50.900;4.672;2023-08-30T03:42:16;43.90;;;40.47;;
9801;SDS011;4940;50.900;4.672;2023-08-30T03:44:44;44.90;;;41.00;;
9801;SDS011;4940;50.900;4.672;2023-08-30T03:47:12;51.33;;;47.28;;
9801;SDS011;4940;50.900;4.672;2023-08-30T03:49:39;49.65;;;45.75;;
9801;SDS011;4940;50.900;4.672;2023-08-30T03:52:07;48.08;;;44.17;;
9801;SDS011;4940;50.900;4.672;2023-08-30T03:54:34;47.33;;;43.53;;
9801;SDS011;4940;50.900;4.672;2023-08-30T03:57:02;45.33;;;41.33;;
9801;SDS011;4940;50.900;4.672;2023-08-30T03:59:29;44.83;;;40.92;;
9801;SDS011;4940;50.900;4.672;2023-08-30T04:01:58;44.17;;;40.42;;
9801;SDS011;4940;50.900;4.672;2023-08-30T04:04:25;50.63;;;46.70;;
9801;SDS011;4940;50.900;4.672;2023-08-30T04:06:53;53.22;;;48.65;;
9801;SDS011;4940;50.900;4.672;2023-08-30T04:09:20;47.90;;;43.70;;
9801;SDS011;4940;50.900;4.672;2023-08-30T04:11:48;48.67;;;44.72;;
9801;SDS011;4940;50.900;4.672;2023-08-30T04:14:15;46.95;;;43.22;;
9801;SDS011;4940;50.900;4.672;2023-08-30T04:16:42;49.63;;;45.53;;
9801;SDS011;4940;50.900;4.672;2023-08-30T04:19:11;52.15;;;48.05;;
9801;SDS011;4940;50.900;4.672;2023-08-30T04:21:38;46.05;;;42.45;;
9801;SDS011;4940;50.900;4.672;2023-08-30T04:24:05;52.85;;;48.40;;
9801;SDS011;4940;50.900;4.672;2023-08-30T04:26:33;42.95;;;39.67;;
9801;SDS011;4940;50.900;4.672;2023-08-30T04:29:00;43.58;;;39.88;;
9801;SDS011;4940;50.900;4.672;2023-08-30T04:31:28;42.45;;;38.85;;
9801;SDS011;4940;50.900;4.672;2023-08-30T04:33:55;39.78;;;36.17;;
9801;SDS011;4940;50.900;4.672;2023-08-30T04:36:24;40.40;;;36.78;;
9801;SDS011;4940;50.900;4.672;2023-08-30T04:38:51;40.42;;;36.90;;
9801;SDS011;4940;50.900;4.672;2023-08-30T04:41:19;43.28;;;39.67;;
9801;SDS011;4940;50.900;4.672;2023-08-30T04:43:46;38.67;;;35.38;;
9801;SDS011;4940;50.900;4.672;2023-08-30T04:46:14;44.58;;;41.00;;
9801;SDS011;4940;50.900;4.672;2023-08-30T04:48:41;40.38;;;37.10;;
9801;SDS011;4940;50.900;4.672;2023-08-30T04:51:08;43.28;;;39.80;;
9801;SDS011;4940;50.900;4.672;2023-08-30T04:53:37;44.30;;;40.92;;
9801;SDS011;4940;50.900;4.672;2023-08-30T04:56:10;38.92;;;36.05;;
9801;SDS011;4940;50.900;4.672;2023-08-30T04:58:38;41.03;;;37.65;;
9801;SDS011;4940;50.900;4.672;2023-08-30T05:01:05;42.13;;;38.63;;
9801;SDS011;4940;50.900;4.672;2023-08-30T05:03:34;41.20;;;38.10;;
9801;SDS011;4940;50.900;4.672;2023-08-30T05:06:01;44.03;;;40.58;;
9801;SDS011;4940;50.900;4.672;2023-08-30T05:08:29;39.20;;;35.88;;
9801;SDS011;4940;50.900;4.672;2023-08-30T05:10:57;40.97;;;37.58;;
9801;SDS011;4940;50.900;4.672;2023-08-30T05:13:24;43.35;;;39.63;;
9801;SDS011;4940;50.900;4.672;2023-08-30T05:15:52;46.90;;;43.00;;
9801;SDS011;4940;50.900;4.672;2023-08-30T05:18:19;39.67;;;36.17;;
9801;SDS011;4940;50.900;4.672;2023-08-30T05:20:47;39.95;;;36.70;;
9801;SDS011;4940;50.900;4.672;2023-08-30T05:23:14;37.70;;;34.40;;
9801;SDS011;4940;50.900;4.672;2023-08-30T05:25:42;35.38;;;32.28;;
9801;SDS011;4940;50.900;4.672;2023-08-30T05:28:10;32.83;;;29.98;;
9801;SDS011;4940;50.900;4.672;2023-08-30T05:30:38;34.03;;;30.83;;
9801;SDS011;4940;50.900;4.672;2023-08-30T05:33:08;34.95;;;31.90;;
9801;SDS011;4940;50.900;4.672;2023-08-30T05:35:35;34.95;;;31.75;;
9801;SDS011;4940;50.900;4.672;2023-08-30T05:38:03;35.03;;;32.05;;
9801;SDS011;4940;50.900;4.672;2023-08-30T05:40:30;35.38;;;32.28;;
9801;SDS011;4940;50.900;4.672;2023-08-30T05:42:57;35.38;;;32.30;;
9801;SDS011;4940;50.900;4.672;2023-08-30T05:45:26;35.55;;;32.35;;
9801;SDS011;4940;50.900;4.672;2023-08-30T05:47:53;33.67;;;30.63;;
9801;SDS011;4940;50.900;4.672;2023-08-30T05:50:21;36.80;;;33.55;;
9801;SDS011;4940;50.900;4.672;2023-08-30T05:52:48;34.33;;;31.20;;
9801;SDS011;4940;50.900;4.672;2023-08-30T05:55:16;34.17;;;31.08;;
9801;SDS011;4940;50.900;4.672;2023-08-30T05:57:44;34.10;;;31.20;;
9801;SDS011;4940;50.900;4.672;2023-08-30T06:00:12;36.80;;;33.72;;
9801;SDS011;4940;50.900;4.672;2023-08-30T06:02:41;34.70;;;31.70;;
9801;SDS011;4940;50.900;4.672;2023-08-30T06:05:09;36.00;;;33.00;;
9801;SDS011;4940;50.900;4.672;2023-08-30T06:07:36;34.28;;;31.27;;
9801;SDS011;4940;50.900;4.672;2023-08-30T06:10:03;37.97;;;34.75;;
9801;SDS011;4940;50.900;4.672;2023-08-30T06:12:31;34.92;;;31.92;;
9801;SDS011;4940;50.900;4.672;2023-08-30T06:14:59;36.05;;;33.05;;
9801;SDS011;4940;50.900;4.672;2023-08-30T06:17:26;37.67;;;34.08;;
9801;SDS011;4940;50.900;4.672;2023-08-30T06:19:55;37.05;;;33.83;;
9801;SDS011;4940;50.900;4.672;2023-08-30T06:22:22;38.10;;;34.92;;
9801;SDS011;4940;50.900;4.672;2023-08-30T06:24:49;36.63;;;33.22;;
9801;SDS011;4940;50.900;4.672;2023-08-30T06:27:17;36.30;;;33.20;;
9801;SDS011;4940;50.900;4.672;2023-08-30T06:29:45;36.20;;;32.75;;
9801;SDS011;4940;50.900;4.672;2023-08-30T06:32:13;36.65;;;33.35;;
9801;SDS011;4940;50.900;4.672;2023-08-30T06:34:40;42.58;;;39.08;;
9801;SDS011;4940;50.900;4.672;2023-08-30T06:37:09;38.92;;;35.33;;
9801;SDS011;4940;50.900;4.672;2023-08-30T06:39:36;39.92;;;36.55;;
9801;SDS011;4940;50.900;4.672;2023-08-30T06:42:04;38.25;;;34.85;;
9801;SDS011;4940;50.900;4.672;2023-08-30T06:44:32;35.60;;;32.50;;
9801;SDS011;4940;50.900;4.672;2023-08-30T06:46:59;36.00;;;32.80;;
9801;SDS011;4940;50.900;4.672;2023-08-30T06:49:26;35.63;;;32.58;;
9801;SDS011;4940;50.900;4.672;2023-08-30T06:51:56;37.22;;;34.03;;
9801;SDS011;4940;50.900;4.672;2023-08-30T06:54:26;36.88;;;33.17;;
9801;SDS011;4940;50.900;4.672;2023-08-30T06:56:57;37.95;;;34.65;;
9801;SDS011;4940;50.900;4.672;2023-08-30T06:59:25;42.53;;;39.13;;
9801;SDS011;4940;50.900;4.672;2023-08-30T07:01:52;41.00;;;37.55;;
9801;SDS011;4940;50.900;4.672;2023-08-30T07:04:19;38.38;;;35.00;;
9801;SDS011;4940;50.900;4.672;2023-08-30T07:06:47;41.88;;;38.28;;
9801;SDS011;4940;50.900;4.672;2023-08-30T07:09:14;42.03;;;38.30;;
9801;SDS011;4940;50.900;4.672;2023-08-30T07:11:43;41.05;;;37.28;;
9801;SDS011;4940;50.900;4.672;2023-08-30T07:14:11;41.80;;;37.97;;
9801;SDS011;4940;50.900;4.672;2023-08-30T07:16:39;42.08;;;38.17;;
9801;SDS011;4940;50.900;4.672;2023-08-30T07:19:07;44.50;;;40.33;;
9801;SDS011;4940;50.900;4.672;2023-08-30T07:21:35;42.33;;;38.45;;
9801;SDS011;4940;50.900;4.672;2023-08-30T07:24:04;43.05;;;39.10;;
9801;SDS011;4940;50.900;4.672;2023-08-30T07:26:32;42.92;;;38.88;;
9801;SDS011;4940;50.900;4.672;2023-08-30T07:29:01;48.33;;;43.83;;
9801;SDS011;4940;50.900;4.672;2023-08-30T07:31:30;45.65;;;41.25;;
9801;SDS011;4940;50.900;4.672;2023-08-30T07:33:57;47.83;;;43.15;;
9801;SDS011;4940;50.900;4.672;2023-08-30T07:36:25;52.17;;;47.53;;
9801;SDS011;4940;50.900;4.672;2023-08-30T07:38:53;51.53;;;46.70;;
9801;SDS011;4940;50.900;4.672;2023-08-30T07:41:20;47.53;;;43.08;;
9801;SDS011;4940;50.900;4.672;2023-08-30T07:43:48;48.70;;;44.05;;
9801;SDS011;4940;50.900;4.672;2023-08-30T07:46:16;49.30;;;44.60;;
9801;SDS011;4940;50.900;4.672;2023-08-30T07:48:44;46.47;;;42.08;;
9801;SDS011;4940;50.900;4.672;2023-08-30T07:51:11;43.60;;;39.45;;
9801;SDS011;4940;50.900;4.672;2023-08-30T07:53:38;50.95;;;46.38;;
9801;SDS011;4940;50.900;4.672;2023-08-30T07:56:06;50.80;;;46.00;;
9801;SDS011;4940;50.900;4.672;2023-08-30T07:58:34;49.88;;;45.45;;
9801;SDS011;4940;50.900;4.672;2023-08-30T08:01:01;49.17;;;44.38;;
9801;SDS011;4940;50.900;4.672;2023-08-30T08:03:30;51.75;;;46.80;;
9801;SDS011;4940;50.900;4.672;2023-08-30T08:05:58;51.90;;;46.80;;
9801;SDS011;4940;50.900;4.672;2023-08-30T08:08:26;50.60;;;45.70;;
9801;SDS011;4940;50.900;4.672;2023-08-30T08:10:53;49.75;;;44.85;;
9801;SDS011;4940;50.900;4.672;2023-08-30T08:13:20;53.25;;;47.95;;
9801;SDS011;4940;50.900;4.672;2023-08-30T08:15:48;53.78;;;48.47;;
9801;SDS011;4940;50.900;4.672;2023-08-30T08:18:17;51.78;;;46.80;;
9801;SDS011;4940;50.900;4.672;2023-08-30T08:20:45;61.97;;;56.53;;
9801;SDS011;4940;50.900;4.672;2023-08-30T08:23:12;53.97;;;48.92;;
9801;SDS011;4940;50.900;4.672;2023-08-30T08:25:40;54.28;;;49.08;;
9801;SDS011;4940;50.900;4.672;2023-08-30T08:28:07;53.58;;;48.38;;
9801;SDS011;4940;50.900;4.672;2023-08-30T08:30:35;52.03;;;47.00;;
9801;SDS011;4940;50.900;4.672;2023-08-30T08:33:03;50.92;;;46.03;;
9801;SDS011;4940;50.900;4.672;2023-08-30T08:35:30;51.78;;;46.80;;
9801;SDS011;4940;50.900;4.672;2023-08-30T08:37:59;55.70;;;50.58;;
9801;SDS011;4940;50.900;4.672;2023-08-30T08:40:27;55.15;;;49.95;;
9801;SDS011;4940;50.900;4.672;2023-08-30T08:42:54;55.03;;;49.92;;
9801;SDS011;4940;50.900;4.672;2023-08-30T08:45:22;61.95;;;56.38;;
9801;SDS011;4940;50.900;4.672;2023-08-30T08:47:51;54.45;;;49.15;;
9801;SDS011;4940;50.900;4.672;2023-08-30T08:50:18;53.95;;;48.95;;
9801;SDS011;4940;50.900;4.672;2023-08-30T08:52:46;52.03;;;47.13;;
9801;SDS011;4940;50.900;4.672;2023-08-30T08:55:15;58.93;;;53.53;;
9801;SDS011;4940;50.900;4.672;2023-08-30T08:57:43;54.55;;;49.38;;
9801;SDS011;4940;50.900;4.672;2023-08-30T09:00:12;51.53;;;46.78;;
9801;SDS011;4940;50.900;4.672;2023-08-30T09:02:41;57.83;;;52.63;;
9801;SDS011;4940;50.900;4.672;2023-08-30T09:05:09;61.00;;;55.70;;
9801;SDS011;4940;50.900;4.672;2023-08-30T09:07:37;56.22;;;51.03;;
9801;SDS011;4940;50.900;4.672;2023-08-30T09:10:06;52.63;;;47.75;;
9801;SDS011;4940;50.900;4.672;2023-08-30T09:12:35;59.28;;;54.00;;
9801;SDS011;4940;50.900;4.672;2023-08-30T09:15:02;52.15;;;47.38;;
9801;SDS011;4940;50.900;4.672;2023-08-30T09:17:36;51.33;;;46.33;;
9801;SDS011;4940;50.900;4.672;2023-08-30T09:20:07;63.75;;;58.35;;
9801;SDS011;4940;50.900;4.672;2023-08-30T09:22:35;68.47;;;62.67;;
9801;SDS011;4940;50.900;4.672;2023-08-30T09:25:03;61.90;;;56.03;;
9801;SDS011;4940;50.900;4.672;2023-08-30T09:27:32;66.95;;;60.95;;
9801;SDS011;4940;50.900;4.672;2023-08-30T09:30:01;62.83;;;56.90;;
9801;SDS011;4940;50.900;4.672;2023-08-30T09:32:30;62.70;;;56.50;;
9801;SDS011;4940;50.900;4.672;2023-08-30T09:34:58;60.80;;;54.95;;
9801;SDS011;4940;50.900;4.672;2023-08-30T09:37:25;66.90;;;60.80;;
9801;SDS011;4940;50.900;4.672;2023-08-30T09:39:52;62.03;;;56.72;;
9801;SDS011;4940;50.900;4.672;2023-08-30T09:42:20;48.08;;;43.67;;
9801;SDS011;4940;50.900;4.672;2023-08-30T09:44:47;47.30;;;43.10;;
9801;SDS011;4940;50.900;4.672;2023-08-30T09:47:16;50.15;;;45.85;;
9801;SDS011;4940;50.900;4.672;2023-08-30T09:49:44;47.95;;;43.83;;
9801;SDS011;4940;50.900;4.672;2023-08-30T09:52:12;43.20;;;39.45;;
9801;SDS011;4940;50.900;4.672;2023-08-30T09:54:42;43.78;;;39.88;;
9801;SDS011;4940;50.900;4.672;2023-08-30T09:57:11;41.28;;;37.88;;
9801;SDS011;4940;50.900;4.672;2023-08-30T09:59:39;45.30;;;41.50;;
9801;SDS011;4940;50.900;4.672;2023-08-30T10:02:08;45.38;;;41.67;;
9801;SDS011;4940;50.900;4.672;2023-08-30T10:04:38;41.35;;;37.75;;
9801;SDS011;4940;50.900;4.672;2023-08-30T10:07:06;40.70;;;37.10;;
9801;SDS011;4940;50.900;4.672;2023-08-30T10:09:35;41.03;;;37.63;;
9801;SDS011;4940;50.900;4.672;2023-08-30T10:12:05;38.92;;;35.42;;
9801;SDS011;4940;50.900;4.672;2023-08-30T10:14:33;38.95;;;35.55;;
9801;SDS011;4940;50.900;4.672;2023-08-30T10:17:02;40.25;;;36.67;;
9801;SDS011;4940;50.900;4.672;2023-08-30T10:19:30;42.95;;;39.20;;
9801;SDS011;4940;50.900;4.672;2023-08-30T10:22:01;39.35;;;35.75;;
9801;SDS011;4940;50.900;4.672;2023-08-30T10:24:29;41.65;;;37.88;;
9801;SDS011;4940;50.900;4.672;2023-08-30T10:27:01;46.13;;;42.13;;
9801;SDS011;4940;50.900;4.672;2023-08-30T10:29:31;43.25;;;39.15;;
9801;SDS011;4940;50.900;4.672;2023-08-30T10:32:03;43.25;;;39.05;;
9801;SDS011;4940;50.900;4.672;2023-08-30T10:34:34;43.63;;;39.55;;
9801;SDS011;4940;50.900;4.672;2023-08-30T10:37:05;43.40;;;39.38;;
9801;SDS011;4940;50.900;4.672;2023-08-30T10:39:34;43.13;;;39.30;;
9801;SDS011;4940;50.900;4.672;2023-08-30T10:42:09;50.55;;;45.95;;
9801;SDS011;4940;50.900;4.672;2023-08-30T10:47:23;46.63;;;42.33;;
9801;SDS011;4940;50.900;4.672;2023-08-30T10:49:53;49.75;;;45.35;;
9801;SDS011;4940;50.900;4.672;2023-08-30T10:52:22;52.20;;;47.65;;
9801;SDS011;4940;50.900;4.672;2023-08-30T10:54:51;46.90;;;42.70;;
9801;SDS011;4940;50.900;4.672;2023-08-30T10:57:18;50.65;;;46.03;;
9801;SDS011;4940;50.900;4.672;2023-08-30T11:00:05;47.17;;;42.67;;
9801;SDS011;4940;50.900;4.672;2023-08-30T11:02:34;45.75;;;41.65;;
9801;SDS011;4940;50.900;4.672;2023-08-30T11:05:03;48.65;;;43.80;;
9801;SDS011;4940;50.900;4.672;2023-08-30T11:07:34;50.88;;;46.50;;
9801;SDS011;4940;50.900;4.672;2023-08-30T11:10:04;48.17;;;44.08;;
9801;SDS011;4940;50.900;4.672;2023-08-30T11:12:31;40.83;;;37.28;;
9801;SDS011;4940;50.900;4.672;2023-08-30T11:14:59;42.05;;;38.53;;
9801;SDS011;4940;50.900;4.672;2023-08-30T11:17:27;41.67;;;38.30;;
9801;SDS011;4940;50.900;4.672;2023-08-30T11:19:57;38.03;;;34.80;;
9801;SDS011;4940;50.900;4.672;2023-08-30T11:22:31;37.05;;;33.97;;
9801;SDS011;4940;50.900;4.672;2023-08-30T11:25:01;37.55;;;34.58;;
9801;SDS011;4940;50.900;4.672;2023-08-30T11:27:29;37.78;;;34.78;;
9801;SDS011;4940;50.900;4.672;2023-08-30T11:29:58;37.83;;;34.92;;
9801;SDS011;4940;50.900;4.672;2023-08-30T11:32:26;40.13;;;37.13;;
9801;SDS011;4940;50.900;4.672;2023-08-30T11:34:56;38.80;;;35.72;;
9801;SDS011;4940;50.900;4.672;2023-08-30T11:37:25;38.15;;;34.95;;
9801;SDS011;4940;50.900;4.672;2023-08-30T11:39:54;39.00;;;36.20;;
9801;SDS011;4940;50.900;4.672;2023-08-30T11:42:24;36.28;;;33.70;;
9801;SDS011;4940;50.900;4.672;2023-08-30T11:44:52;34.22;;;31.58;;
9801;SDS011;4940;50.900;4.672;2023-08-30T11:47:20;31.02;;;29.10;;
9801;SDS011;4940;50.900;4.672;2023-08-30T11:49:49;26.67;;;25.02;;
9801;SDS011;4940;50.900;4.672;2023-08-30T11:52:18;27.05;;;25.35;;
9801;SDS011;4940;50.900;4.672;2023-08-30T11:54:46;26.10;;;24.58;;
9801;SDS011;4940;50.900;4.672;2023-08-30T11:57:14;25.92;;;24.42;;
9801;SDS011;4940;50.900;4.672;2023-08-30T11:59:43;32.72;;;30.70;;
9801;SDS011;4940;50.900;4.672;2023-08-30T12:02:11;31.73;;;29.75;;
9801;SDS011;4940;50.900;4.672;2023-08-30T12:04:39;33.03;;;30.83;;
9801;SDS011;4940;50.900;4.672;2023-08-30T12:07:06;30.92;;;29.00;;
9801;SDS011;4940;50.900;4.672;2023-08-30T12:09:33;30.45;;;28.75;;
9801;SDS011;4940;50.900;4.672;2023-08-30T12:12:05;30.48;;;28.63;;
9801;SDS011;4940;50.900;4.672;2023-08-30T12:14:33;14.85;;;13.85;;
9801;SDS011;4940;50.900;4.672;2023-08-30T12:17:01;7.20;;;6.57;;
9801;SDS011;4940;50.900;4.672;2023-08-30T12:19:30;6.57;;;5.28;;
9801;SDS011;4940;50.900;4.672;2023-08-30T12:22:03;6.40;;;4.38;;
9801;SDS011;4940;50.900;4.672;2023-08-30T12:24:40;4.03;;;2.38;;
9801;SDS011;4940;50.900;4.672;2023-08-30T12:27:08;7.70;;;1.80;;
9801;SDS011;4940;50.900;4.672;2023-08-30T12:29:35;5.32;;;2.10;;
9801;SDS011;4940;50.900;4.672;2023-08-30T12:32:04;2.00;;;1.35;;
9801;SDS011;4940;50.900;4.672;2023-08-30T12:34:33;5.20;;;1.80;;
9801;SDS011;4940;50.900;4.672;2023-08-30T12:37:00;4.63;;;1.73;;
9801;SDS011;4940;50.900;4.672;2023-08-30T12:39:28;4.45;;;1.73;;
9801;SDS011;4940;50.900;4.672;2023-08-30T12:41:56;2.67;;;1.70;;
9801;SDS011;4940;50.900;4.672;2023-08-30T12:44:23;4.65;;;1.90;;
9801;SDS011;4940;50.900;4.672;2023-08-30T12:46:50;5.53;;;1.98;;
9801;SDS011;4940;50.900;4.672;2023-08-30T12:49:19;7.45;;;1.60;;
9801;SDS011;4940;50.900;4.672;2023-08-30T12:51:46;4.45;;;1.80;;
9801;SDS011;4940;50.900;4.672;2023-08-30T12:54:14;3.97;;;1.70;;
9801;SDS011;4940;50.900;4.672;2023-08-30T12:56:41;2.10;;;1.40;;
9801;SDS011;4940;50.900;4.672;2023-08-30T12:59:08;3.22;;;1.52;;
9801;SDS011;4940;50.900;4.672;2023-08-30T13:01:36;8.02;;;1.55;;
9801;SDS011;4940;50.900;4.672;2023-08-30T13:04:03;3.53;;;1.80;;
9801;SDS011;4940;50.900;4.672;2023-08-30T13:06:32;4.25;;;1.35;;
9801;SDS011;4940;50.900;4.672;2023-08-30T13:08:59;5.45;;;1.60;;
9801;SDS011;4940;50.900;4.672;2023-08-30T13:11:27;7.28;;;1.60;;
9801;SDS011;4940;50.900;4.672;2023-08-30T13:13:57;4.80;;;1.80;;
9801;SDS011;4940;50.900;4.672;2023-08-30T13:16:24;6.75;;;1.58;;
9801;SDS011;4940;50.900;4.672;2023-08-30T13:18:52;4.63;;;1.40;;
9801;SDS011;4940;50.900;4.672;2023-08-30T13:21:20;5.57;;;1.70;;
9801;SDS011;4940;50.900;4.672;2023-08-30T13:23:48;3.65;;;1.42;;
9801;SDS011;4940;50.900;4.672;2023-08-30T13:26:15;4.63;;;1.50;;
9801;SDS011;4940;50.900;4.672;2023-08-30T13:28:43;5.07;;;1.52;;
9801;SDS011;4940;50.900;4.672;2023-08-30T13:31:10;3.90;;;1.65;;
9801;SDS011;4940;50.900;4.672;2023-08-30T13:33:38;3.40;;;1.50;;
9801;SDS011;4940;50.900;4.672;2023-08-30T13:36:05;2.67;;;1.42;;
9801;SDS011;4940;50.900;4.672;2023-08-30T13:38:33;5.72;;;1.65;;
9801;SDS011;4940;50.900;4.672;2023-08-30T13:41:01;5.18;;;1.77;;
9801;SDS011;4940;50.900;4.672;2023-08-30T13:43:30;2.92;;;1.13;;
9801;SDS011;4940;50.900;4.672;2023-08-30T13:45:57;2.22;;;1.10;;
9801;SDS011;4940;50.900;4.672;2023-08-30T13:48:25;3.17;;;1.17;;
9801;SDS011;4940;50.900;4.672;2023-08-30T13:50:52;1.80;;;1.00;;
9801;SDS011;4940;50.900;4.672;2023-08-30T13:53:19;2.65;;;1.00;;
9801;SDS011;4940;50.900;4.672;2023-08-30T13:55:47;3.78;;;1.00;;
9801;SDS011;4940;50.900;4.672;2023-08-30T13:58:16;2.70;;;1.20;;
9801;SDS011;4940;50.900;4.672;2023-08-30T14:00:43;2.15;;;1.50;;
9801;SDS011;4940;50.900;4.672;2023-08-30T14:03:11;1.35;;;0.95;;
9801;SDS011;4940;50.900;4.672;2023-08-30T14:05:38;3.78;;;1.20;;
9801;SDS011;4940;50.900;4.672;2023-08-30T14:08:06;3.63;;;1.20;;
9801;SDS011;4940;50.900;4.672;2023-08-30T14:10:33;2.50;;;0.98;;
9801;SDS011;4940;50.900;4.672;2023-08-30T14:13:01;2.10;;;1.00;;
9801;SDS011;4940;50.900;4.672;2023-08-30T14:15:29;2.05;;;0.70;;
9801;SDS011;4940;50.900;4.672;2023-08-30T14:17:57;2.65;;;1.10;;
9801;SDS011;4940;50.900;4.672;2023-08-30T14:20:24;1.42;;;0.98;;
9801;SDS011;4940;50.900;4.672;2023-08-30T14:22:52;4.97;;;1.15;;
9801;SDS011;4940;50.900;4.672;2023-08-30T14:25:19;3.20;;;1.00;;
9801;SDS011;4940;50.900;4.672;2023-08-30T14:27:46;2.33;;;1.10;;
9801;SDS011;4940;50.900;4.672;2023-08-30T14:30:14;5.20;;;1.38;;
9801;SDS011;4940;50.900;4.672;2023-08-30T14:32:43;2.70;;;1.05;;
9801;SDS011;4940;50.900;4.672;2023-08-30T14:35:10;4.57;;;1.40;;
9801;SDS011;4940;50.900;4.672;2023-08-30T14:37:38;3.53;;;1.17;;
9801;SDS011;4940;50.900;4.672;2023-08-30T14:40:06;1.80;;;1.20;;
9801;SDS011;4940;50.900;4.672;2023-08-30T14:42:34;3.40;;;1.10;;
9801;SDS011;4940;50.900;4.672;2023-08-30T14:45:03;1.83;;;1.30;;
9801;SDS011;4940;50.900;4.672;2023-08-30T14:47:32;3.05;;;1.30;;
9801;SDS011;4940;50.900;4.672;2023-08-30T14:50:00;2.85;;;1.27;;
9801;SDS011;4940;50.900;4.672;2023-08-30T14:52:30;3.47;;;1.25;;
9801;SDS011;4940;50.900;4.672;2023-08-30T14:54:58;3.40;;;1.52;;
9801;SDS011;4940;50.900;4.672;2023-08-30T14:57:25;5.00;;;1.23;;
9801;SDS011;4940;50.900;4.672;2023-08-30T14:59:53;5.72;;;1.00;;
9801;SDS011;4940;50.900;4.672;2023-08-30T15:02:20;3.47;;;1.33;;